Petra — 9HA3655 — position and weather

sailwx.info

Track history (hours):
 
Tides and Currents Weather Stations Pressure Air Temp Water Temp Dewpoint Dewpoint Depression Visibility Wind Speed Wind Dir Waves Ship Positions

Petra

Last reported at 2017-Dec-10 02:13 UTC. Time now 2017-Dec-11 00:34 UTC.
Position N 41°01' E 028°60'.

Length 180 m; draft 5.7 m.

Type: Cargo ship. MMSI: 229843000.

Date/timePositionNaut miles runAvg speedWind from/ knotsBaromVisibWave heightAir tempDewpointWater temp
2017-Dec-10 02:13N 41°01' E 028°60'2 8.2
2017-Dec-10 01:59N 40°60' E 029°00'3 4.4
2017-Dec-10 01:23N 40°57' E 028°59'4 7.9
2017-Dec-10 00:54N 40°54' E 028°56'3 8.4
2017-Dec-10 00:30N 40°52' E 028°53'  
2017-Dec-02 13:07N 43°26' E 034°42'312.0
2017-Dec-02 12:51N 43°28' E 034°46'2712.1
2017-Dec-02 10:38N 43°40' E 035°19'1211.6
2017-Dec-02 09:36N 43°45' E 035°34'111.6
2017-Dec-02 09:30N 43°46' E 035°35'611.7
2017-Dec-02 09:00N 43°48' E 035°42'1811.6
2017-Dec-02 07:25N 43°57' E 036°05'811.6
2017-Dec-02 06:44N 44°00' E 036°15'511.6
2017-Dec-02 06:19N 44°02' E 036°21'5211.8
2017-Dec-02 01:58N 44°26' E 037°25'611.8
2017-Dec-02 01:29N 44°29' E 037°32'611.8
2017-Dec-02 01:00N 44°31' E 037°39'611.4
2017-Dec-02 00:30N 44°35' E 037°45'510.9
2017-Dec-02 00:00N 44°39' E 037°50'4 7.3
2017-Dec-01 23:30N 44°43' E 037°49'1 2.8
2017-Dec-01 23:00N 44°44' E 037°47'0 0.0
2017-Dec-01 22:30N 44°44' E 037°47'0 0.0
2017-Dec-01 22:00N 44°44' E 037°47'0 0.0
2017-Dec-01 21:30N 44°44' E 037°47'0 0.0
2017-Dec-01 21:00N 44°44' E 037°47'0 0.0
2017-Dec-01 20:30N 44°44' E 037°47'0 0.0
2017-Dec-01 20:00N 44°44' E 037°47'0 0.0
2017-Dec-01 19:30N 44°44' E 037°47'0 0.0
2017-Dec-01 19:00N 44°44' E 037°47'0 0.0
2017-Dec-01 18:30N 44°44' E 037°47'0 0.0
2017-Dec-01 18:00N 44°44' E 037°47'0 0.0
2017-Dec-01 17:30N 44°44' E 037°47'0 0.0
2017-Dec-01 17:00N 44°44' E 037°47'0 0.0
2017-Dec-01 16:30N 44°44' E 037°47'0 0.0
2017-Dec-01 16:00N 44°44' E 037°47'0 0.0
2017-Dec-01 15:30N 44°44' E 037°47'0 0.0
2017-Dec-01 15:00N 44°44' E 037°47'0 0.0
2017-Dec-01 14:30N 44°44' E 037°47'0 0.0
2017-Dec-01 14:00N 44°44' E 037°47'0 0.0
2017-Dec-01 13:30N 44°44' E 037°47'0 0.0
2017-Dec-01 13:00N 44°44' E 037°47'0 0.0
2017-Dec-01 12:30N 44°44' E 037°47'0 0.0
2017-Dec-01 12:00N 44°44' E 037°47'0 0.0
2017-Dec-01 11:30N 44°44' E 037°47'0 0.0
2017-Dec-01 11:00N 44°44' E 037°47'0 0.0
2017-Dec-01 10:30N 44°44' E 037°47'0 0.0
2017-Dec-01 10:00N 44°44' E 037°47'0 0.0
2017-Dec-01 09:30N 44°44' E 037°47'0 0.0
2017-Dec-01 09:00N 44°44' E 037°47'0 0.0
2017-Dec-01 08:30N 44°44' E 037°47'0 0.0
2017-Dec-01 08:00N 44°44' E 037°47'0 0.0
2017-Dec-01 07:30N 44°44' E 037°47'0 0.0
2017-Dec-01 07:00N 44°44' E 037°47'0 0.0
2017-Dec-01 06:30N 44°44' E 037°47'0 0.0
2017-Dec-01 06:00N 44°44' E 037°47'0 0.0
2017-Dec-01 05:30N 44°44' E 037°47'0 0.0
2017-Dec-01 05:00N 44°44' E 037°47'0 0.0
2017-Dec-01 04:30N 44°44' E 037°47'0 0.0
2017-Dec-01 04:00N 44°44' E 037°47'0 0.0
2017-Dec-01 03:30N 44°44' E 037°47'0 0.0
2017-Dec-01 03:00N 44°44' E 037°47'0 0.0
2017-Dec-01 02:30N 44°44' E 037°47'0 0.0
2017-Dec-01 02:00N 44°44' E 037°47'0 0.0
2017-Dec-01 01:30N 44°44' E 037°47'0 0.0
2017-Dec-01 01:00N 44°44' E 037°47'0 0.0
2017-Dec-01 00:30N 44°44' E 037°47'0 0.0
2017-Dec-01 00:00N 44°44' E 037°47'0 0.0
2017-Nov-30 23:30N 44°44' E 037°47'0 0.0
2017-Nov-30 23:00N 44°44' E 037°47'0 0.0
2017-Nov-30 22:30N 44°44' E 037°47'0 0.0
2017-Nov-30 22:00N 44°44' E 037°47'0 0.0
2017-Nov-30 21:30N 44°44' E 037°47'0 0.0
2017-Nov-30 21:00N 44°44' E 037°47'0 0.0
2017-Nov-30 20:30N 44°44' E 037°47'0 0.0
2017-Nov-30 20:00N 44°44' E 037°47'0 0.0
2017-Nov-30 19:30N 44°44' E 037°47'0 0.0
2017-Nov-30 19:00N 44°44' E 037°47'0 0.0
2017-Nov-30 18:30N 44°44' E 037°47'0 0.0
2017-Nov-30 18:00N 44°44' E 037°47'0 0.0
2017-Nov-30 17:30N 44°44' E 037°47'0 0.0
2017-Nov-30 17:00N 44°44' E 037°47'0 0.0
2017-Nov-30 16:30N 44°44' E 037°47'0 0.0
2017-Nov-30 16:00N 44°44' E 037°47'0 0.0
2017-Nov-30 15:30N 44°44' E 037°47'0 0.0
2017-Nov-30 15:00N 44°44' E 037°47'0 0.0
2017-Nov-30 14:30N 44°44' E 037°47'0 0.0
2017-Nov-30 14:00N 44°44' E 037°47'0 0.0
2017-Nov-30 13:30N 44°44' E 037°47'0 0.0
2017-Nov-30 13:00N 44°44' E 037°47'0 0.0
2017-Nov-30 12:30N 44°44' E 037°47'0 0.0
2017-Nov-30 12:00N 44°44' E 037°47'0 0.0
2017-Nov-30 11:30N 44°44' E 037°47'0 0.0
2017-Nov-30 11:00N 44°44' E 037°47'0 0.0
2017-Nov-30 10:30N 44°44' E 037°47'0 0.0
2017-Nov-30 10:00N 44°44' E 037°47'0 0.0
2017-Nov-30 09:30N 44°44' E 037°47'0 0.0
2017-Nov-30 09:00N 44°44' E 037°47'0 0.0
2017-Nov-30 08:30N 44°44' E 037°47'0 0.0
2017-Nov-30 08:00N 44°44' E 037°47'0 0.0
2017-Nov-30 07:30N 44°44' E 037°47'0 0.0
2017-Nov-30 07:00N 44°44' E 037°47'0 0.0
2017-Nov-30 06:30N 44°44' E 037°47'0 0.0
2017-Nov-30 06:00N 44°44' E 037°47'0 0.0
2017-Nov-30 05:30N 44°44' E 037°47'0 0.0
2017-Nov-30 05:00N 44°44' E 037°47'0 0.0
2017-Nov-30 04:30N 44°44' E 037°47'0 0.0
2017-Nov-30 04:00N 44°44' E 037°47'0 0.0
2017-Nov-30 03:30N 44°44' E 037°47'0 0.0
2017-Nov-30 03:00N 44°44' E 037°47'0 0.0
2017-Nov-30 02:30N 44°44' E 037°47'  
Track history (hours):
 
Tides and Currents Weather Stations Pressure Air Temp Water Temp Dewpoint Dewpoint Depression Visibility Wind Speed Wind Dir Waves Ship Positions

Petra

Last reported at 2017-Dec-10 02:13 UTC. Time now 2017-Dec-11 00:34 UTC.
Position N 41°01' E 028°60'.

Length 180 m; draft 5.7 m.

Type: Cargo ship. MMSI: 229843000.

Date/timePositionNaut miles runAvg speedWind from/ knotsBaromVisibWave heightAir tempDewpointWater temp
2017-Dec-10 02:13N 41°01' E 028°60'2 8.2
2017-Dec-10 01:59N 40°60' E 029°00'3 4.4
2017-Dec-10 01:23N 40°57' E 028°59'4 7.9
2017-Dec-10 00:54N 40°54' E 028°56'3 8.4
2017-Dec-10 00:30N 40°52' E 028°53'  
2017-Dec-02 13:07N 43°26' E 034°42'312.0
2017-Dec-02 12:51N 43°28' E 034°46'2712.1
2017-Dec-02 10:38N 43°40' E 035°19'1211.6
2017-Dec-02 09:36N 43°45' E 035°34'111.6
2017-Dec-02 09:30N 43°46' E 035°35'611.7
2017-Dec-02 09:00N 43°48' E 035°42'1811.6
2017-Dec-02 07:25N 43°57' E 036°05'811.6
2017-Dec-02 06:44N 44°00' E 036°15'511.6
2017-Dec-02 06:19N 44°02' E 036°21'5211.8
2017-Dec-02 01:58N 44°26' E 037°25'611.8
2017-Dec-02 01:29N 44°29' E 037°32'611.8
2017-Dec-02 01:00N 44°31' E 037°39'611.4
2017-Dec-02 00:30N 44°35' E 037°45'510.9
2017-Dec-02 00:00N 44°39' E 037°50'4 7.3
2017-Dec-01 23:30N 44°43' E 037°49'1 2.8
2017-Dec-01 23:00N 44°44' E 037°47'0 0.0
2017-Dec-01 22:30N 44°44' E 037°47'0 0.0
2017-Dec-01 22:00N 44°44' E 037°47'0 0.0
2017-Dec-01 21:30N 44°44' E 037°47'0 0.0
2017-Dec-01 21:00N 44°44' E 037°47'0 0.0
2017-Dec-01 20:30N 44°44' E 037°47'0 0.0
2017-Dec-01 20:00N 44°44' E 037°47'0 0.0
2017-Dec-01 19:30N 44°44' E 037°47'0 0.0
2017-Dec-01 19:00N 44°44' E 037°47'0 0.0
2017-Dec-01 18:30N 44°44' E 037°47'0 0.0
2017-Dec-01 18:00N 44°44' E 037°47'0 0.0
2017-Dec-01 17:30N 44°44' E 037°47'0 0.0
2017-Dec-01 17:00N 44°44' E 037°47'0 0.0
2017-Dec-01 16:30N 44°44' E 037°47'0 0.0
2017-Dec-01 16:00N 44°44' E 037°47'0 0.0
2017-Dec-01 15:30N 44°44' E 037°47'0 0.0
2017-Dec-01 15:00N 44°44' E 037°47'0 0.0
2017-Dec-01 14:30N 44°44' E 037°47'0 0.0
2017-Dec-01 14:00N 44°44' E 037°47'0 0.0
2017-Dec-01 13:30N 44°44' E 037°47'0 0.0
2017-Dec-01 13:00N 44°44' E 037°47'0 0.0
2017-Dec-01 12:30N 44°44' E 037°47'0 0.0
2017-Dec-01 12:00N 44°44' E 037°47'0 0.0
2017-Dec-01 11:30N 44°44' E 037°47'0 0.0
2017-Dec-01 11:00N 44°44' E 037°47'0 0.0
2017-Dec-01 10:30N 44°44' E 037°47'0 0.0
2017-Dec-01 10:00N 44°44' E 037°47'0 0.0
2017-Dec-01 09:30N 44°44' E 037°47'0 0.0
2017-Dec-01 09:00N 44°44' E 037°47'0 0.0
2017-Dec-01 08:30N 44°44' E 037°47'0 0.0
2017-Dec-01 08:00N 44°44' E 037°47'0 0.0
2017-Dec-01 07:30N 44°44' E 037°47'0 0.0
2017-Dec-01 07:00N 44°44' E 037°47'0 0.0
2017-Dec-01 06:30N 44°44' E 037°47'0 0.0
2017-Dec-01 06:00N 44°44' E 037°47'0 0.0
2017-Dec-01 05:30N 44°44' E 037°47'0 0.0
2017-Dec-01 05:00N 44°44' E 037°47'0 0.0
2017-Dec-01 04:30N 44°44' E 037°47'0 0.0
2017-Dec-01 04:00N 44°44' E 037°47'0 0.0
2017-Dec-01 03:30N 44°44' E 037°47'0 0.0
2017-Dec-01 03:00N 44°44' E 037°47'0 0.0
2017-Dec-01 02:30N 44°44' E 037°47'0 0.0
2017-Dec-01 02:00N 44°44' E 037°47'0 0.0
2017-Dec-01 01:30N 44°44' E 037°47'0 0.0
2017-Dec-01 01:00N 44°44' E 037°47'0 0.0
2017-Dec-01 00:30N 44°44' E 037°47'0 0.0
2017-Dec-01 00:00N 44°44' E 037°47'0 0.0
2017-Nov-30 23:30N 44°44' E 037°47'0 0.0
2017-Nov-30 23:00N 44°44' E 037°47'0 0.0
2017-Nov-30 22:30N 44°44' E 037°47'0 0.0
2017-Nov-30 22:00N 44°44' E 037°47'0 0.0
2017-Nov-30 21:30N 44°44' E 037°47'0 0.0
2017-Nov-30 21:00N 44°44' E 037°47'0 0.0
2017-Nov-30 20:30N 44°44' E 037°47'0 0.0
2017-Nov-30 20:00N 44°44' E 037°47'0 0.0
2017-Nov-30 19:30N 44°44' E 037°47'0 0.0
2017-Nov-30 19:00N 44°44' E 037°47'0 0.0
2017-Nov-30 18:30N 44°44' E 037°47'0 0.0
2017-Nov-30 18:00N 44°44' E 037°47'0 0.0
2017-Nov-30 17:30N 44°44' E 037°47'0 0.0
2017-Nov-30 17:00N 44°44' E 037°47'0 0.0
2017-Nov-30 16:30N 44°44' E 037°47'0 0.0
2017-Nov-30 16:00N 44°44' E 037°47'0 0.0
2017-Nov-30 15:30N 44°44' E 037°47'0 0.0
2017-Nov-30 15:00N 44°44' E 037°47'0 0.0
2017-Nov-30 14:30N 44°44' E 037°47'0 0.0
2017-Nov-30 14:00N 44°44' E 037°47'0 0.0
2017-Nov-30 13:30N 44°44' E 037°47'0 0.0
2017-Nov-30 13:00N 44°44' E 037°47'0 0.0
2017-Nov-30 12:30N 44°44' E 037°47'0 0.0
2017-Nov-30 12:00N 44°44' E 037°47'0 0.0
2017-Nov-30 11:30N 44°44' E 037°47'0 0.0
2017-Nov-30 11:00N 44°44' E 037°47'0 0.0
2017-Nov-30 10:30N 44°44' E 037°47'0 0.0
2017-Nov-30 10:00N 44°44' E 037°47'0 0.0
2017-Nov-30 09:30N 44°44' E 037°47'0 0.0
2017-Nov-30 09:00N 44°44' E 037°47'0 0.0
2017-Nov-30 08:30N 44°44' E 037°47'0 0.0
2017-Nov-30 08:00N 44°44' E 037°47'0 0.0
2017-Nov-30 07:30N 44°44' E 037°47'0 0.0
2017-Nov-30 07:00N 44°44' E 037°47'0 0.0
2017-Nov-30 06:30N 44°44' E 037°47'0 0.0
2017-Nov-30 06:00N 44°44' E 037°47'0 0.0
2017-Nov-30 05:30N 44°44' E 037°47'0 0.0
2017-Nov-30 05:00N 44°44' E 037°47'0 0.0
2017-Nov-30 04:30N 44°44' E 037°47'0 0.0
2017-Nov-30 04:00N 44°44' E 037°47'0 0.0
2017-Nov-30 03:30N 44°44' E 037°47'0 0.0
2017-Nov-30 03:00N 44°44' E 037°47'0 0.0
2017-Nov-30 02:30N 44°44' E 037°47'  

Dump ship's entire track history